sensor_id;sensor_type;location;lat;lon;timestamp;P1;durP1;ratioP1;P2;durP2;ratioP2
45318;SDS011;31057;48.498;32.260;2022-12-18T00:00:58;3.90;;;3.00;;
45318;SDS011;31057;48.498;32.260;2022-12-18T00:05:02;3.83;;;3.53;;
45318;SDS011;31057;48.498;32.260;2022-12-18T00:07:04;4.18;;;3.55;;
45318;SDS011;31057;48.498;32.260;2022-12-18T00:09:06;3.70;;;3.40;;
45318;SDS011;31057;48.498;32.260;2022-12-18T00:11:14;4.40;;;4.00;;
45318;SDS011;31057;48.498;32.260;2022-12-18T00:13:20;4.38;;;3.90;;
45318;SDS011;31057;48.498;32.260;2022-12-18T00:15:22;4.28;;;3.88;;
45318;SDS011;31057;48.498;32.260;2022-12-18T00:17:24;4.57;;;3.83;;
45318;SDS011;31057;48.498;32.260;2022-12-18T00:19:26;4.05;;;3.75;;
45318;SDS011;31057;48.498;32.260;2022-12-18T00:23:31;4.18;;;3.85;;
45318;SDS011;31057;48.498;32.260;2022-12-18T00:25:36;5.60;;;3.85;;
45318;SDS011;31057;48.498;32.260;2022-12-18T00:27:38;4.50;;;4.00;;
45318;SDS011;31057;48.498;32.260;2022-12-18T00:29:40;5.28;;;4.78;;
45318;SDS011;31057;48.498;32.260;2022-12-18T00:31:42;8.07;;;5.20;;
45318;SDS011;31057;48.498;32.260;2022-12-18T00:33:44;5.32;;;4.38;;
45318;SDS011;31057;48.498;32.260;2022-12-18T00:35:46;5.03;;;4.53;;
45318;SDS011;31057;48.498;32.260;2022-12-18T00:37:48;5.55;;;5.05;;
45318;SDS011;31057;48.498;32.260;2022-12-18T00:39:50;6.47;;;5.65;;
45318;SDS011;31057;48.498;32.260;2022-12-18T00:41:52;4.95;;;4.43;;
45318;SDS011;31057;48.498;32.260;2022-12-18T00:44:14;6.47;;;5.88;;
45318;SDS011;31057;48.498;32.260;2022-12-18T00:46:18;6.15;;;5.65;;
45318;SDS011;31057;48.498;32.260;2022-12-18T00:50:22;7.60;;;6.90;;
45318;SDS011;31057;48.498;32.260;2022-12-18T00:52:25;6.75;;;6.15;;
45318;SDS011;31057;48.498;32.260;2022-12-18T00:54:27;6.68;;;5.97;;
45318;SDS011;31057;48.498;32.260;2022-12-18T00:56:29;5.70;;;5.20;;
45318;SDS011;31057;48.498;32.260;2022-12-18T00:58:31;6.70;;;6.05;;
45318;SDS011;31057;48.498;32.260;2022-12-18T01:00:33;5.90;;;4.97;;
45318;SDS011;31057;48.498;32.260;2022-12-18T01:02:35;6.20;;;5.70;;
45318;SDS011;31057;48.498;32.260;2022-12-18T01:04:38;6.63;;;5.70;;
45318;SDS011;31057;48.498;32.260;2022-12-18T01:06:39;6.40;;;5.80;;
45318;SDS011;31057;48.498;32.260;2022-12-18T01:10:44;6.88;;;6.18;;
45318;SDS011;31057;48.498;32.260;2022-12-18T01:12:47;7.55;;;6.32;;
45318;SDS011;31057;48.498;32.260;2022-12-18T01:14:49;7.50;;;6.80;;
45318;SDS011;31057;48.498;32.260;2022-12-18T01:18:53;6.20;;;5.53;;
45318;SDS011;31057;48.498;32.260;2022-12-18T01:20:56;8.75;;;7.72;;
45318;SDS011;31057;48.498;32.260;2022-12-18T01:22:58;7.70;;;6.90;;
45318;SDS011;31057;48.498;32.260;2022-12-18T01:25:00;8.93;;;7.45;;
45318;SDS011;31057;48.498;32.260;2022-12-18T01:27:01;9.20;;;8.30;;
45318;SDS011;31057;48.498;32.260;2022-12-18T01:29:03;8.27;;;7.43;;
45318;SDS011;31057;48.498;32.260;2022-12-18T01:31:22;9.50;;;7.97;;
45318;SDS011;31057;48.498;32.260;2022-12-18T01:33:28;7.25;;;6.47;;
45318;SDS011;31057;48.498;32.260;2022-12-18T01:35:31;8.75;;;7.40;;
45318;SDS011;31057;48.498;32.260;2022-12-18T01:37:32;10.05;;;8.88;;
45318;SDS011;31057;48.498;32.260;2022-12-18T01:39:34;10.98;;;8.80;;
45318;SDS011;31057;48.498;32.260;2022-12-18T01:41:37;12.27;;;8.98;;
45318;SDS011;31057;48.498;32.260;2022-12-18T01:43:57;10.40;;;9.07;;
45318;SDS011;31057;48.498;32.260;2022-12-18T01:45:59;10.48;;;9.02;;
45318;SDS011;31057;48.498;32.260;2022-12-18T01:48:03;10.65;;;8.63;;
45318;SDS011;31057;48.498;32.260;2022-12-18T01:52:17;10.15;;;8.85;;
45318;SDS011;31057;48.498;32.260;2022-12-18T01:54:19;11.77;;;9.70;;
45318;SDS011;31057;48.498;32.260;2022-12-18T01:56:21;12.88;;;9.63;;
45318;SDS011;31057;48.498;32.260;2022-12-18T02:00:31;11.45;;;9.85;;
45318;SDS011;31057;48.498;32.260;2022-12-18T02:02:33;11.35;;;10.25;;
45318;SDS011;31057;48.498;32.260;2022-12-18T02:04:35;11.98;;;9.82;;
45318;SDS011;31057;48.498;32.260;2022-12-18T02:06:39;8.75;;;7.85;;
45318;SDS011;31057;48.498;32.260;2022-12-18T02:10:46;10.88;;;8.80;;
45318;SDS011;31057;48.498;32.260;2022-12-18T02:15:23;10.07;;;7.93;;
45318;SDS011;31057;48.498;32.260;2022-12-18T02:17:36;9.70;;;8.70;;
45318;SDS011;31057;48.498;32.260;2022-12-18T02:26:36;12.68;;;10.35;;
45318;SDS011;31057;48.498;32.260;2022-12-18T02:31:07;13.48;;;10.77;;
45318;SDS011;31057;48.498;32.260;2022-12-18T02:33:15;12.98;;;10.75;;
45318;SDS011;31057;48.498;32.260;2022-12-18T02:35:25;13.65;;;10.68;;
45318;SDS011;31057;48.498;32.260;2022-12-18T02:39:33;14.48;;;9.95;;
45318;SDS011;31057;48.498;32.260;2022-12-18T02:41:38;12.32;;;10.95;;
45318;SDS011;31057;48.498;32.260;2022-12-18T02:43:45;13.45;;;10.35;;
45318;SDS011;31057;48.498;32.260;2022-12-18T02:45:55;13.75;;;10.13;;
45318;SDS011;31057;48.498;32.260;2022-12-18T02:47:59;14.48;;;11.55;;
45318;SDS011;31057;48.498;32.260;2022-12-18T02:50:10;13.30;;;10.93;;
45318;SDS011;31057;48.498;32.260;2022-12-18T02:57:19;14.38;;;10.65;;
45318;SDS011;31057;48.498;32.260;2022-12-18T02:59:51;18.88;;;15.05;;
45318;SDS011;31057;48.498;32.260;2022-12-18T03:02:08;18.58;;;12.85;;
45318;SDS011;31057;48.498;32.260;2022-12-18T03:04:50;22.15;;;15.93;;
45318;SDS011;31057;48.498;32.260;2022-12-18T03:07:02;22.23;;;15.80;;
45318;SDS011;31057;48.498;32.260;2022-12-18T03:09:09;19.40;;;13.90;;
45318;SDS011;31057;48.498;32.260;2022-12-18T03:11:33;19.23;;;12.48;;
45318;SDS011;31057;48.498;32.260;2022-12-18T03:13:56;17.75;;;12.00;;
45318;SDS011;31057;48.498;32.260;2022-12-18T03:15:59;18.25;;;12.98;;
45318;SDS011;31057;48.498;32.260;2022-12-18T03:18:04;18.55;;;14.30;;
45318;SDS011;31057;48.498;32.260;2022-12-18T03:20:12;15.55;;;12.65;;
45318;SDS011;31057;48.498;32.260;2022-12-18T03:22:16;16.00;;;10.82;;
45318;SDS011;31057;48.498;32.260;2022-12-18T03:24:18;20.05;;;14.13;;
45318;SDS011;31057;48.498;32.260;2022-12-18T03:26:23;18.17;;;12.05;;
45318;SDS011;31057;48.498;32.260;2022-12-18T03:28:28;21.05;;;15.80;;
45318;SDS011;31057;48.498;32.260;2022-12-18T03:30:33;19.10;;;14.35;;
45318;SDS011;31057;48.498;32.260;2022-12-18T03:35:03;17.40;;;13.45;;
45318;SDS011;31057;48.498;32.260;2022-12-18T03:37:07;21.70;;;15.88;;
45318;SDS011;31057;48.498;32.260;2022-12-18T03:48:46;20.85;;;15.40;;
45318;SDS011;31057;48.498;32.260;2022-12-18T03:51:03;20.00;;;13.10;;
45318;SDS011;31057;48.498;32.260;2022-12-18T03:55:44;21.20;;;15.30;;
45318;SDS011;31057;48.498;32.260;2022-12-18T03:57:48;24.55;;;14.05;;
45318;SDS011;31057;48.498;32.260;2022-12-18T03:59:54;12.38;;;9.00;;
45318;SDS011;31057;48.498;32.260;2022-12-18T04:02:08;21.65;;;14.23;;
45318;SDS011;31057;48.498;32.260;2022-12-18T04:04:10;22.65;;;15.55;;
45318;SDS011;31057;48.498;32.260;2022-12-18T04:06:15;18.77;;;13.77;;
45318;SDS011;31057;48.498;32.260;2022-12-18T04:08:18;20.70;;;13.23;;
45318;SDS011;31057;48.498;32.260;2022-12-18T04:10:21;20.88;;;14.50;;
45318;SDS011;31057;48.498;32.260;2022-12-18T04:12:24;21.67;;;15.15;;
45318;SDS011;31057;48.498;32.260;2022-12-18T04:14:27;23.50;;;14.80;;
45318;SDS011;31057;48.498;32.260;2022-12-18T04:16:29;20.85;;;12.95;;
45318;SDS011;31057;48.498;32.260;2022-12-18T04:18:31;20.77;;;14.10;;
45318;SDS011;31057;48.498;32.260;2022-12-18T04:20:32;20.80;;;13.68;;
45318;SDS011;31057;48.498;32.260;2022-12-18T04:22:34;21.77;;;14.77;;
45318;SDS011;31057;48.498;32.260;2022-12-18T04:24:36;20.45;;;14.27;;
45318;SDS011;31057;48.498;32.260;2022-12-18T04:26:38;22.92;;;15.82;;
45318;SDS011;31057;48.498;32.260;2022-12-18T04:28:40;20.70;;;13.75;;
45318;SDS011;31057;48.498;32.260;2022-12-18T04:30:42;23.40;;;14.13;;
45318;SDS011;31057;48.498;32.260;2022-12-18T04:34:52;20.15;;;12.57;;
45318;SDS011;31057;48.498;32.260;2022-12-18T04:38:56;22.70;;;15.73;;
45318;SDS011;31057;48.498;32.260;2022-12-18T04:40:58;22.75;;;15.73;;
45318;SDS011;31057;48.498;32.260;2022-12-18T04:43:00;21.60;;;16.17;;
45318;SDS011;31057;48.498;32.260;2022-12-18T04:47:04;24.33;;;20.20;;
45318;SDS011;31057;48.498;32.260;2022-12-18T04:49:06;23.77;;;18.67;;
45318;SDS011;31057;48.498;32.260;2022-12-18T04:53:09;27.27;;;15.73;;
45318;SDS011;31057;48.498;32.260;2022-12-18T04:55:11;25.15;;;18.95;;
45318;SDS011;31057;48.498;32.260;2022-12-18T04:57:13;19.95;;;14.10;;
45318;SDS011;31057;48.498;32.260;2022-12-18T05:01:17;23.10;;;15.73;;
45318;SDS011;31057;48.498;32.260;2022-12-18T05:03:19;25.67;;;15.85;;
45318;SDS011;31057;48.498;32.260;2022-12-18T05:05:21;26.85;;;16.85;;
45318;SDS011;31057;48.498;32.260;2022-12-18T05:09:25;23.80;;;14.85;;
45318;SDS011;31057;48.498;32.260;2022-12-18T05:11:27;27.33;;;17.55;;
45318;SDS011;31057;48.498;32.260;2022-12-18T05:13:29;27.35;;;17.20;;
45318;SDS011;31057;48.498;32.260;2022-12-18T05:15:32;31.10;;;19.05;;
45318;SDS011;31057;48.498;32.260;2022-12-18T05:17:35;33.45;;;21.02;;
45318;SDS011;31057;48.498;32.260;2022-12-18T05:19:38;30.58;;;19.70;;
45318;SDS011;31057;48.498;32.260;2022-12-18T05:21:40;28.65;;;19.80;;
45318;SDS011;31057;48.498;32.260;2022-12-18T05:23:42;31.98;;;19.55;;
45318;SDS011;31057;48.498;32.260;2022-12-18T05:25:54;30.13;;;20.30;;
45318;SDS011;31057;48.498;32.260;2022-12-18T05:27:58;28.95;;;21.42;;
45318;SDS011;31057;48.498;32.260;2022-12-18T05:30:00;30.80;;;23.48;;
45318;SDS011;31057;48.498;32.260;2022-12-18T05:32:02;27.95;;;18.27;;
45318;SDS011;31057;48.498;32.260;2022-12-18T05:36:06;34.00;;;21.35;;
45318;SDS011;31057;48.498;32.260;2022-12-18T05:38:09;26.75;;;15.82;;
45318;SDS011;31057;48.498;32.260;2022-12-18T05:40:11;34.17;;;20.58;;
45318;SDS011;31057;48.498;32.260;2022-12-18T05:42:13;33.83;;;21.88;;
45318;SDS011;31057;48.498;32.260;2022-12-18T05:46:17;37.55;;;24.15;;
45318;SDS011;31057;48.498;32.260;2022-12-18T05:48:20;36.42;;;24.00;;
45318;SDS011;31057;48.498;32.260;2022-12-18T05:50:22;35.67;;;21.15;;
45318;SDS011;31057;48.498;32.260;2022-12-18T05:52:24;38.85;;;23.05;;
45318;SDS011;31057;48.498;32.260;2022-12-18T05:54:29;29.58;;;22.42;;
45318;SDS011;31057;48.498;32.260;2022-12-18T05:56:32;26.63;;;18.55;;
45318;SDS011;31057;48.498;32.260;2022-12-18T05:58:34;26.55;;;18.50;;
45318;SDS011;31057;48.498;32.260;2022-12-18T06:00:36;27.10;;;17.10;;
45318;SDS011;31057;48.498;32.260;2022-12-18T08:14:11;21.30;;;15.10;;
45318;SDS011;31057;48.498;32.260;2022-12-18T08:18:15;23.33;;;13.73;;
45318;SDS011;31057;48.498;32.260;2022-12-18T08:20:17;27.27;;;16.40;;
45318;SDS011;31057;48.498;32.260;2022-12-18T08:22:19;26.02;;;17.38;;
45318;SDS011;31057;48.498;32.260;2022-12-18T08:26:23;19.52;;;13.38;;
45318;SDS011;31057;48.498;32.260;2022-12-18T08:28:27;25.70;;;18.35;;
45318;SDS011;31057;48.498;32.260;2022-12-18T08:30:29;20.58;;;14.88;;
45318;SDS011;31057;48.498;32.260;2022-12-18T08:34:34;23.70;;;12.20;;
45318;SDS011;31057;48.498;32.260;2022-12-18T08:38:37;28.65;;;16.75;;
45318;SDS011;31057;48.498;32.260;2022-12-18T08:40:39;35.00;;;19.65;;
45318;SDS011;31057;48.498;32.260;2022-12-18T08:42:41;39.38;;;23.80;;
45318;SDS011;31057;48.498;32.260;2022-12-18T08:45:02;32.70;;;20.08;;
45318;SDS011;31057;48.498;32.260;2022-12-18T08:47:05;36.60;;;22.70;;
45318;SDS011;31057;48.498;32.260;2022-12-18T08:49:08;31.13;;;22.20;;
45318;SDS011;31057;48.498;32.260;2022-12-18T08:51:10;35.17;;;18.92;;
45318;SDS011;31057;48.498;32.260;2022-12-18T08:53:12;29.65;;;17.10;;
45318;SDS011;31057;48.498;32.260;2022-12-18T08:55:14;31.48;;;19.85;;
45318;SDS011;31057;48.498;32.260;2022-12-18T08:57:16;38.13;;;19.52;;
45318;SDS011;31057;48.498;32.260;2022-12-18T08:59:18;37.40;;;23.33;;
45318;SDS011;31057;48.498;32.260;2022-12-18T09:01:21;30.60;;;21.25;;
45318;SDS011;31057;48.498;32.260;2022-12-18T09:03:23;30.90;;;19.02;;
45318;SDS011;31057;48.498;32.260;2022-12-18T09:07:27;27.60;;;16.50;;
45318;SDS011;31057;48.498;32.260;2022-12-18T09:09:30;27.40;;;15.10;;
45318;SDS011;31057;48.498;32.260;2022-12-18T09:11:32;33.55;;;21.17;;
45318;SDS011;31057;48.498;32.260;2022-12-18T09:13:35;31.83;;;24.00;;
45318;SDS011;31057;48.498;32.260;2022-12-18T09:15:43;29.60;;;19.30;;
45318;SDS011;31057;48.498;32.260;2022-12-18T09:17:47;31.77;;;21.90;;
45318;SDS011;31057;48.498;32.260;2022-12-18T09:19:51;35.28;;;25.20;;
45318;SDS011;31057;48.498;32.260;2022-12-18T09:21:52;30.90;;;20.85;;
45318;SDS011;31057;48.498;32.260;2022-12-18T09:25:59;32.40;;;20.83;;
45318;SDS011;31057;48.498;32.260;2022-12-18T09:28:02;34.25;;;21.95;;
45318;SDS011;31057;48.498;32.260;2022-12-18T09:30:08;30.42;;;21.98;;
45318;SDS011;31057;48.498;32.260;2022-12-18T09:32:10;27.95;;;18.80;;
45318;SDS011;31057;48.498;32.260;2022-12-18T09:34:17;30.88;;;19.92;;
45318;SDS011;31057;48.498;32.260;2022-12-18T09:36:22;30.77;;;18.67;;
45318;SDS011;31057;48.498;32.260;2022-12-18T09:38:24;27.42;;;19.50;;
45318;SDS011;31057;48.498;32.260;2022-12-18T09:40:27;26.23;;;18.25;;
45318;SDS011;31057;48.498;32.260;2022-12-18T09:42:33;25.70;;;16.95;;
45318;SDS011;31057;48.498;32.260;2022-12-18T09:46:47;22.35;;;15.73;;
45318;SDS011;31057;48.498;32.260;2022-12-18T09:48:56;25.55;;;15.10;;
45318;SDS011;31057;48.498;32.260;2022-12-18T09:53:47;22.83;;;17.38;;
45318;SDS011;31057;48.498;32.260;2022-12-18T09:55:53;27.48;;;16.77;;
45318;SDS011;31057;48.498;32.260;2022-12-18T09:58:00;23.10;;;14.95;;
45318;SDS011;31057;48.498;32.260;2022-12-18T10:00:21;22.40;;;16.80;;
45318;SDS011;31057;48.498;32.260;2022-12-18T10:02:25;24.88;;;14.50;;
45318;SDS011;31057;48.498;32.260;2022-12-18T10:04:31;28.35;;;17.98;;
45318;SDS011;31057;48.498;32.260;2022-12-18T10:06:35;23.35;;;15.80;;
45318;SDS011;31057;48.498;32.260;2022-12-18T10:09:03;27.27;;;14.55;;
45318;SDS011;31057;48.498;32.260;2022-12-18T10:13:31;22.55;;;13.82;;
45318;SDS011;31057;48.498;32.260;2022-12-18T10:15:40;22.70;;;16.08;;
45318;SDS011;31057;48.498;32.260;2022-12-18T10:17:58;19.05;;;15.05;;
45318;SDS011;31057;48.498;32.260;2022-12-18T10:20:35;21.52;;;18.02;;
45318;SDS011;31057;48.498;32.260;2022-12-18T10:24:50;23.92;;;15.10;;
45318;SDS011;31057;48.498;32.260;2022-12-18T10:27:17;21.45;;;13.38;;
45318;SDS011;31057;48.498;32.260;2022-12-18T10:29:24;21.27;;;15.32;;
45318;SDS011;31057;48.498;32.260;2022-12-18T10:31:26;18.13;;;11.00;;
45318;SDS011;31057;48.498;32.260;2022-12-18T10:33:29;19.67;;;14.27;;
45318;SDS011;31057;48.498;32.260;2022-12-18T10:35:33;19.75;;;13.63;;
45318;SDS011;31057;48.498;32.260;2022-12-18T10:37:36;21.27;;;12.50;;
45318;SDS011;31057;48.498;32.260;2022-12-18T10:40:14;17.20;;;14.65;;
45318;SDS011;31057;48.498;32.260;2022-12-18T10:42:22;20.33;;;13.63;;
45318;SDS011;31057;48.498;32.260;2022-12-18T10:44:24;21.83;;;15.98;;
45318;SDS011;31057;48.498;32.260;2022-12-18T10:46:27;20.83;;;15.07;;
45318;SDS011;31057;48.498;32.260;2022-12-18T10:48:29;21.80;;;14.13;;
45318;SDS011;31057;48.498;32.260;2022-12-18T10:50:34;20.95;;;14.68;;
45318;SDS011;31057;48.498;32.260;2022-12-18T10:53:03;21.77;;;13.40;;
45318;SDS011;31057;48.498;32.260;2022-12-18T10:55:06;23.00;;;14.15;;
45318;SDS011;31057;48.498;32.260;2022-12-18T10:59:35;25.23;;;18.35;;
45318;SDS011;31057;48.498;32.260;2022-12-18T11:01:56;24.27;;;19.67;;
45318;SDS011;31057;48.498;32.260;2022-12-18T11:04:01;19.27;;;14.13;;
45318;SDS011;31057;48.498;32.260;2022-12-18T11:06:14;19.52;;;11.43;;
45318;SDS011;31057;48.498;32.260;2022-12-18T11:08:20;20.00;;;14.90;;
45318;SDS011;31057;48.498;32.260;2022-12-18T11:10:35;18.20;;;14.02;;
45318;SDS011;31057;48.498;32.260;2022-12-18T11:12:40;14.90;;;10.15;;
45318;SDS011;31057;48.498;32.260;2022-12-18T11:14:43;19.98;;;15.45;;
45318;SDS011;31057;48.498;32.260;2022-12-18T11:16:48;20.10;;;13.07;;
45318;SDS011;31057;48.498;32.260;2022-12-18T11:19:31;19.90;;;13.68;;
45318;SDS011;31057;48.498;32.260;2022-12-18T11:21:39;18.10;;;12.23;;
45318;SDS011;31057;48.498;32.260;2022-12-18T11:23:46;21.23;;;13.55;;
45318;SDS011;31057;48.498;32.260;2022-12-18T11:25:50;24.08;;;17.25;;
45318;SDS011;31057;48.498;32.260;2022-12-18T11:27:59;21.70;;;14.07;;
45318;SDS011;31057;48.498;32.260;2022-12-18T11:30:09;24.10;;;14.82;;
45318;SDS011;31057;48.498;32.260;2022-12-18T11:32:27;23.58;;;18.90;;
45318;SDS011;31057;48.498;32.260;2022-12-18T11:34:32;19.98;;;14.48;;
45318;SDS011;31057;48.498;32.260;2022-12-18T11:36:36;20.90;;;16.77;;
45318;SDS011;31057;48.498;32.260;2022-12-18T11:38:45;23.55;;;18.40;;
45318;SDS011;31057;48.498;32.260;2022-12-18T11:43:44;22.17;;;15.50;;
45318;SDS011;31057;48.498;32.260;2022-12-18T11:45:51;15.90;;;9.93;;
45318;SDS011;31057;48.498;32.260;2022-12-18T11:47:58;22.95;;;15.40;;
45318;SDS011;31057;48.498;32.260;2022-12-18T11:50:10;19.52;;;13.93;;
45318;SDS011;31057;48.498;32.260;2022-12-18T11:52:24;22.25;;;13.65;;
45318;SDS011;31057;48.498;32.260;2022-12-18T11:54:30;20.98;;;14.63;;
45318;SDS011;31057;48.498;32.260;2022-12-18T11:56:33;18.55;;;12.55;;
45318;SDS011;31057;48.498;32.260;2022-12-18T12:00:57;20.60;;;13.10;;
45318;SDS011;31057;48.498;32.260;2022-12-18T14:17:03;28.02;;;18.15;;
45318;SDS011;31057;48.498;32.260;2022-12-18T14:19:14;27.75;;;18.27;;
45318;SDS011;31057;48.498;32.260;2022-12-18T14:21:22;26.80;;;20.15;;
45318;SDS011;31057;48.498;32.260;2022-12-18T14:23:39;29.30;;;18.90;;
45318;SDS011;31057;48.498;32.260;2022-12-18T14:25:45;29.70;;;17.73;;
45318;SDS011;31057;48.498;32.260;2022-12-18T14:27:52;31.00;;;23.30;;
45318;SDS011;31057;48.498;32.260;2022-12-18T14:32:32;25.08;;;16.58;;
45318;SDS011;31057;48.498;32.260;2022-12-18T14:34:34;28.40;;;14.82;;
45318;SDS011;31057;48.498;32.260;2022-12-18T14:36:36;30.83;;;20.70;;
45318;SDS011;31057;48.498;32.260;2022-12-18T14:38:41;24.05;;;15.82;;
45318;SDS011;31057;48.498;32.260;2022-12-18T14:40:43;26.02;;;17.83;;
45318;SDS011;31057;48.498;32.260;2022-12-18T14:42:45;26.92;;;17.92;;
45318;SDS011;31057;48.498;32.260;2022-12-18T14:47:13;28.42;;;17.13;;
45318;SDS011;31057;48.498;32.260;2022-12-18T14:49:30;37.42;;;20.98;;
45318;SDS011;31057;48.498;32.260;2022-12-18T14:51:34;36.83;;;20.88;;
45318;SDS011;31057;48.498;32.260;2022-12-18T14:53:38;27.60;;;18.23;;
45318;SDS011;31057;48.498;32.260;2022-12-18T14:55:54;31.80;;;17.75;;
45318;SDS011;31057;48.498;32.260;2022-12-18T14:57:56;36.60;;;17.92;;
45318;SDS011;31057;48.498;32.260;2022-12-18T15:00:15;32.45;;;18.63;;
45318;SDS011;31057;48.498;32.260;2022-12-18T15:04:35;27.58;;;19.02;;
45318;SDS011;31057;48.498;32.260;2022-12-18T15:06:43;27.10;;;18.17;;
45318;SDS011;31057;48.498;32.260;2022-12-18T15:08:45;27.10;;;16.02;;
45318;SDS011;31057;48.498;32.260;2022-12-18T15:10:48;25.73;;;19.75;;
45318;SDS011;31057;48.498;32.260;2022-12-18T15:14:57;31.35;;;16.98;;
45318;SDS011;31057;48.498;32.260;2022-12-18T15:17:00;28.33;;;18.25;;
45318;SDS011;31057;48.498;32.260;2022-12-18T15:19:06;27.90;;;18.73;;
45318;SDS011;31057;48.498;32.260;2022-12-18T15:21:09;27.70;;;17.02;;
45318;SDS011;31057;48.498;32.260;2022-12-18T15:23:17;31.60;;;20.58;;
45318;SDS011;31057;48.498;32.260;2022-12-18T15:25:45;28.67;;;19.30;;
45318;SDS011;31057;48.498;32.260;2022-12-18T15:27:48;32.35;;;20.10;;
45318;SDS011;31057;48.498;32.260;2022-12-18T15:32:18;22.23;;;16.95;;
45318;SDS011;31057;48.498;32.260;2022-12-18T15:34:21;23.15;;;15.30;;
45318;SDS011;31057;48.498;32.260;2022-12-18T15:36:24;23.48;;;14.07;;
45318;SDS011;31057;48.498;32.260;2022-12-18T15:38:27;19.98;;;12.73;;
45318;SDS011;31057;48.498;32.260;2022-12-18T15:42:31;25.85;;;16.15;;
45318;SDS011;31057;48.498;32.260;2022-12-18T15:44:51;25.55;;;14.77;;
45318;SDS011;31057;48.498;32.260;2022-12-18T15:48:58;17.98;;;12.65;;
45318;SDS011;31057;48.498;32.260;2022-12-18T15:51:04;19.65;;;15.23;;
45318;SDS011;31057;48.498;32.260;2022-12-18T15:53:10;17.45;;;11.48;;
45318;SDS011;31057;48.498;32.260;2022-12-18T15:57:33;24.10;;;15.52;;
45318;SDS011;31057;48.498;32.260;2022-12-18T15:59:35;20.92;;;12.13;;
45318;SDS011;31057;48.498;32.260;2022-12-18T16:03:43;27.83;;;16.63;;
45318;SDS011;31057;48.498;32.260;2022-12-18T16:05:45;22.58;;;13.68;;
45318;SDS011;31057;48.498;32.260;2022-12-18T16:09:49;25.10;;;14.82;;
45318;SDS011;31057;48.498;32.260;2022-12-18T16:13:53;29.77;;;17.35;;
45318;SDS011;31057;48.498;32.260;2022-12-18T16:17:57;30.90;;;15.73;;
45318;SDS011;31057;48.498;32.260;2022-12-18T16:22:00;21.63;;;13.23;;
45318;SDS011;31057;48.498;32.260;2022-12-18T16:24:02;27.92;;;16.17;;
45318;SDS011;31057;48.498;32.260;2022-12-18T16:26:05;28.05;;;16.17;;
45318;SDS011;31057;48.498;32.260;2022-12-18T16:28:06;28.90;;;12.70;;
45318;SDS011;31057;48.498;32.260;2022-12-18T16:32:14;26.70;;;15.98;;
45318;SDS011;31057;48.498;32.260;2022-12-18T16:34:24;24.00;;;14.80;;
45318;SDS011;31057;48.498;32.260;2022-12-18T16:36:29;21.08;;;14.73;;
45318;SDS011;31057;48.498;32.260;2022-12-18T16:38:31;17.20;;;10.13;;
45318;SDS011;31057;48.498;32.260;2022-12-18T16:42:55;24.80;;;14.52;;
45318;SDS011;31057;48.498;32.260;2022-12-18T16:44:57;25.90;;;13.02;;
45318;SDS011;31057;48.498;32.260;2022-12-18T16:49:03;14.43;;;10.43;;
45318;SDS011;31057;48.498;32.260;2022-12-18T16:51:05;16.00;;;9.60;;
45318;SDS011;31057;48.498;32.260;2022-12-18T16:55:09;16.20;;;10.52;;
45318;SDS011;31057;48.498;32.260;2022-12-18T16:57:12;31.00;;;17.33;;
45318;SDS011;31057;48.498;32.260;2022-12-18T16:59:15;17.08;;;11.15;;
45318;SDS011;31057;48.498;32.260;2022-12-18T17:01:17;30.50;;;15.55;;
45318;SDS011;31057;48.498;32.260;2022-12-18T17:03:24;28.08;;;13.98;;
45318;SDS011;31057;48.498;32.260;2022-12-18T17:05:26;21.20;;;13.73;;
45318;SDS011;31057;48.498;32.260;2022-12-18T17:09:35;26.95;;;14.18;;
45318;SDS011;31057;48.498;32.260;2022-12-18T17:11:40;33.75;;;17.58;;
45318;SDS011;31057;48.498;32.260;2022-12-18T17:13:42;24.85;;;13.40;;
45318;SDS011;31057;48.498;32.260;2022-12-18T17:19:49;37.38;;;18.98;;
45318;SDS011;31057;48.498;32.260;2022-12-18T17:21:51;30.85;;;18.00;;
45318;SDS011;31057;48.498;32.260;2022-12-18T17:23:54;33.00;;;17.63;;
45318;SDS011;31057;48.498;32.260;2022-12-18T17:25:59;44.10;;;22.50;;
45318;SDS011;31057;48.498;32.260;2022-12-18T17:28:01;32.17;;;18.40;;
45318;SDS011;31057;48.498;32.260;2022-12-18T17:30:04;41.55;;;22.42;;
45318;SDS011;31057;48.498;32.260;2022-12-18T17:32:07;35.13;;;17.02;;
45318;SDS011;31057;48.498;32.260;2022-12-18T17:38:13;23.60;;;13.55;;
45318;SDS011;31057;48.498;32.260;2022-12-18T17:40:16;31.88;;;17.42;;
45318;SDS011;31057;48.498;32.260;2022-12-18T17:42:19;20.25;;;12.77;;
45318;SDS011;31057;48.498;32.260;2022-12-18T17:44:21;25.77;;;13.70;;
45318;SDS011;31057;48.498;32.260;2022-12-18T17:46:27;25.88;;;15.18;;
45318;SDS011;31057;48.498;32.260;2022-12-18T17:48:32;27.10;;;17.58;;
45318;SDS011;31057;48.498;32.260;2022-12-18T17:50:34;20.30;;;12.60;;
45318;SDS011;31057;48.498;32.260;2022-12-18T17:52:36;19.48;;;12.60;;
45318;SDS011;31057;48.498;32.260;2022-12-18T17:54:38;17.50;;;11.18;;
45318;SDS011;31057;48.498;32.260;2022-12-18T17:56:42;20.88;;;12.07;;
45318;SDS011;31057;48.498;32.260;2022-12-18T17:58:50;15.73;;;9.13;;
45318;SDS011;31057;48.498;32.260;2022-12-18T20:14:34;21.25;;;13.43;;
45318;SDS011;31057;48.498;32.260;2022-12-18T20:20:41;27.30;;;16.95;;
45318;SDS011;31057;48.498;32.260;2022-12-18T20:22:43;23.10;;;15.18;;
45318;SDS011;31057;48.498;32.260;2022-12-18T20:24:45;16.35;;;10.90;;
45318;SDS011;31057;48.498;32.260;2022-12-18T20:26:49;21.55;;;15.75;;
45318;SDS011;31057;48.498;32.260;2022-12-18T20:30:57;20.60;;;12.77;;
45318;SDS011;31057;48.498;32.260;2022-12-18T20:33:01;22.05;;;11.98;;
45318;SDS011;31057;48.498;32.260;2022-12-18T20:37:06;23.00;;;12.98;;
45318;SDS011;31057;48.498;32.260;2022-12-18T20:39:10;26.63;;;16.77;;
45318;SDS011;31057;48.498;32.260;2022-12-18T20:41:14;22.90;;;13.05;;
45318;SDS011;31057;48.498;32.260;2022-12-18T20:43:18;18.83;;;12.75;;
45318;SDS011;31057;48.498;32.260;2022-12-18T20:47:22;17.77;;;11.32;;
45318;SDS011;31057;48.498;32.260;2022-12-18T20:49:25;16.42;;;9.23;;
45318;SDS011;31057;48.498;32.260;2022-12-18T20:51:27;16.50;;;11.85;;
45318;SDS011;31057;48.498;32.260;2022-12-18T20:53:29;18.23;;;12.82;;
45318;SDS011;31057;48.498;32.260;2022-12-18T20:55:32;21.90;;;13.07;;
45318;SDS011;31057;48.498;32.260;2022-12-18T20:57:33;20.95;;;11.70;;
45318;SDS011;31057;48.498;32.260;2022-12-18T20:59:38;16.15;;;11.13;;
45318;SDS011;31057;48.498;32.260;2022-12-18T21:01:48;19.05;;;10.95;;
45318;SDS011;31057;48.498;32.260;2022-12-18T21:03:50;15.07;;;10.00;;
45318;SDS011;31057;48.498;32.260;2022-12-18T21:05:53;13.98;;;9.27;;
45318;SDS011;31057;48.498;32.260;2022-12-18T21:07:54;14.00;;;9.68;;
45318;SDS011;31057;48.498;32.260;2022-12-18T21:09:56;16.58;;;11.57;;
45318;SDS011;31057;48.498;32.260;2022-12-18T21:11:58;14.43;;;11.07;;
45318;SDS011;31057;48.498;32.260;2022-12-18T21:14:20;14.50;;;10.77;;
45318;SDS011;31057;48.498;32.260;2022-12-18T21:16:23;13.80;;;10.75;;
45318;SDS011;31057;48.498;32.260;2022-12-18T21:18:26;19.83;;;12.38;;